Saint Marie, Montana
Current Conditions -  °F | °C
As of 10:53 PM on Monday 20 Oct 2014 (Local Time) from KGGW Reporting Station
Clear Clear  
Wind Chill: 51°   Ceiling: Unl
Heat Index: 51°   Visibility: 10mi
Dew Point: 37°   Wind: 14mph
Humidity: 59%   Direction: 110°ESE
Pressure: 29.73"   Gusts: NA
Location:  48.4°N, 106.55°W
Report Text: KGGW 210453Z AUTO 11012KT 10SM CLR 11/03 A2973 RMK AO2 SLP071 T01060028
Loading
Personal Weather Stations






























Interactive Weather Map
Tropical Storm Tracking
New forecast layout! Learn more

10-Day Weather Forecast

Advertisements
Track Severe Weather on mobile